Time;durP1;ratioP1;P1;durP2;ratioP2;P2;SDS_P1;SDS_P2;PMS_P1;PMS_P2;Temp;Humidity;BMP_temperature;BMP_pressure;BME280_temperature;BME280_humidity;BME280_pressure;Samples;Min_cycle;Max_cycle;Signal;HPM_P1;HPM_P2
2021/01/21 00:03:51;;;;;;;172.83;69.60;;;;;;;2.02;83.33;97888.02;250153;1148;23022;-77
2021/01/21 00:08:54;;;;;;;192.25;74.90;;;;;;;2.02;83.50;97877.45;249978;1155;23104;-77
2021/01/21 00:13:56;;;;;;;188.60;73.37;;;;;;;1.78;81.81;97880.45;250013;1151;23101;-76
2021/01/21 00:18:58;;;;;;;187.53;75.30;;;;;;;1.59;81.61;97872.11;249992;1148;22954;-83
2021/01/21 00:24:01;;;;;;;168.97;68.97;;;;;;;1.46;81.87;97869.91;250407;1148;22967;-79
2021/01/21 00:29:03;;;;;;;190.93;74.13;;;;;;;1.42;82.41;97866.95;250132;1148;22975;-77
2021/01/21 00:34:06;;;;;;;127.47;50.63;;;;;;;1.33;82.24;97863.98;250347;1150;22967;-79
2021/01/21 00:39:08;;;;;;;153.70;54.23;;;;;;;1.28;82.47;97863.93;249957;1149;22939;-78
2021/01/21 00:44:11;;;;;;;135.60;51.20;;;;;;;1.29;83.49;97859.47;250009;1148;23155;-78
2021/01/21 00:49:13;;;;;;;112.17;46.50;;;;;;;1.27;83.53;97861.55;250343;1151;23024;-76
2021/01/21 00:54:15;;;;;;;150.93;58.20;;;;;;;1.27;82.77;97853.63;249963;1151;22980;-77
2021/01/21 00:59:18;;;;;;;161.70;63.20;;;;;;;1.30;83.40;97858.40;250292;1148;22923;-77
2021/01/21 01:04:20;;;;;;;162.23;62.33;;;;;;;1.35;84.33;97848.69;250180;1151;22914;-78
2021/01/21 01:09:22;;;;;;;160.13;62.23;;;;;;;1.40;84.12;97841.86;250360;1150;22938;-78
2021/01/21 01:14:24;;;;;;;159.77;60.90;;;;;;;1.48;84.41;97850.14;250079;1148;22941;-82
2021/01/21 01:19:28;;;;;;;160.23;61.87;;;;;;;1.53;84.90;97834.32;250072;1148;22990;-78
2021/01/21 01:24:30;;;;;;;202.60;77.05;;;;;;;1.56;83.93;97838.30;250062;1151;23122;-78
2021/01/21 01:29:32;;;;;;;234.07;88.23;;;;;;;1.58;83.97;97832.77;250049;1150;23062;-78
2021/01/21 01:34:35;;;;;;;214.20;78.15;;;;;;;1.58;84.24;97832.77;250097;1156;22973;-78
2021/01/21 01:39:42;;;;;;;208.30;77.90;;;;;;;1.54;83.88;97827.22;250167;1156;23003;-76
2021/01/21 01:44:51;;;;;;;174.77;68.43;;;;;;;1.58;84.24;97824.84;250045;1148;22904;-77
2021/01/21 01:49:56;;;;;;;157.70;61.53;;;;;;;1.59;84.88;97829.09;250248;1148;23100;-77
2021/01/21 01:54:58;;;;;;;149.20;57.25;;;;;;;1.51;83.87;97817.95;250040;1151;22961;-76
2021/01/21 02:00:11;;;;;;;148.70;58.80;;;;;;;1.48;83.79;97830.84;250049;1148;23295;-79
2021/01/21 02:05:19;;;;;;;145.30;54.77;;;;;;;1.44;84.28;97822.66;250161;1150;22953;-78
2021/01/21 02:10:23;;;;;;;141.43;56.87;;;;;;;1.50;84.90;97829.55;250142;1148;23103;-78
2021/01/21 02:15:59;;;;;;;144.80;54.37;;;;;;;1.56;85.40;97830.38;250000;1148;23033;-77
2021/01/21 02:21:24;;;;;;;142.03;55.63;;;;;;;1.59;84.68;97819.31;249987;1150;22971;-79
2021/01/21 02:26:33;;;;;;;157.03;60.37;;;;;;;1.59;84.71;97811.39;250081;1148;22958;-79
2021/01/21 02:31:57;;;;;;;143.53;58.17;;;;;;;1.60;84.56;97817.48;249710;1155;22966;-78
2021/01/21 02:37:01;;;;;;;129.83;51.97;;;;;;;1.66;85.20;97821.75;250086;1151;22961;-78
2021/01/21 02:42:44;;;;;;;140.95;56.45;;;;;;;1.56;83.39;97813.77;250045;1148;23103;-77
2021/01/21 02:47:49;;;;;;;132.80;49.60;;;;;;;1.24;83.52;97802.16;249977;1151;22992;-78
2021/01/21 02:52:59;;;;;;;125.43;47.37;;;;;;;1.05;83.37;97804.38;250024;1148;22956;-76
2021/01/21 02:58:32;;;;;;;131.10;48.93;;;;;;;0.97;83.65;97808.25;250283;1148;22975;-78
2021/01/21 03:03:40;;;;;;;123.20;48.20;;;;;;;1.05;84.21;97804.38;249857;1151;23036;-78
2021/01/21 03:08:45;;;;;;;104.40;40.27;;;;;;;1.08;83.78;97806.51;250073;1150;22977;-77
2021/01/21 03:13:48;;;;;;;137.60;50.20;;;;;;;1.07;84.53;97801.48;249898;1148;22954;-78
2021/01/21 03:18:51;;;;;;;168.70;58.35;;;;;;;1.07;84.95;97807.55;250113;1148;22942;-78
2021/01/21 03:23:54;;;;;;;156.97;54.20;;;;;;;1.06;85.11;97816.50;250150;1148;22942;-79
2021/01/21 03:29:07;;;;;;;165.17;55.97;;;;;;;1.09;84.83;97809.94;250135;1148;23051;-87
2021/01/21 03:34:11;;;;;;;161.90;56.30;;;;;;;1.09;84.70;97794.92;250033;1148;22942;-78
2021/01/21 03:39:18;;;;;;;139.27;50.33;;;;;;;1.10;84.31;97804.41;250135;1155;22981;-78
2021/01/21 03:44:30;;;;;;;149.75;52.00;;;;;;;1.15;85.47;97804.45;249969;1150;22939;-78
2021/01/21 03:49:34;;;;;;;137.90;47.35;;;;;;;1.16;85.54;97795.51;250048;1151;22907;-80
2021/01/21 03:54:47;;;;;;;125.33;43.00;;;;;;;1.17;85.59;97802.35;249869;1148;22978;-77
2021/01/21 03:59:52;;;;;;;125.97;43.20;;;;;;;1.21;85.03;97799.23;250049;1148;22970;-79
2021/01/21 04:04:54;;;;;;;141.07;48.10;;;;;;;1.23;84.96;97790.00;250341;1148;22912;-76
2021/01/21 04:09:57;;;;;;;142.73;46.20;;;;;;;1.20;84.54;97790.51;250029;1156;22918;-76
2021/01/21 04:15:23;;;;;;;134.30;47.00;;;;;;;1.12;84.18;97783.86;250139;1148;22950;-78
2021/01/21 04:20:25;;;;;;;143.13;47.27;;;;;;;1.04;84.11;97780.89;250353;1153;22938;-77
2021/01/21 04:25:30;;;;;;;145.17;47.83;;;;;;;1.01;84.67;97782.19;250338;1148;27743;-79
2021/01/21 04:30:36;;;;;;;164.10;53.73;;;;;;;1.00;84.21;97780.58;250076;1151;22893;-78
2021/01/21 04:35:39;;;;;;;138.53;46.87;;;;;;;1.04;85.00;97784.31;250198;1151;22945;-85
2021/01/21 04:40:43;;;;;;;138.27;44.43;;;;;;;1.09;85.44;97773.00;250008;1151;23005;-78
2021/01/21 04:46:08;;;;;;;140.73;45.17;;;;;;;1.12;85.47;97778.59;250105;1148;22942;-80
2021/01/21 04:51:14;;;;;;;133.80;43.53;;;;;;;1.12;85.39;97775.95;250286;1155;25026;-77
2021/01/21 04:56:28;;;;;;;148.27;46.03;;;;;;;1.15;84.94;97766.74;250335;1148;22883;-76
2021/01/21 05:02:02;;;;;;;149.33;46.43;;;;;;;0.99;84.60;97773.70;250667;1150;22991;-78
2021/01/21 05:07:06;;;;;;;143.50;45.67;;;;;;;0.95;84.48;97776.06;250547;1148;22942;-82
2021/01/21 05:12:11;;;;;;;150.03;45.33;;;;;;;0.98;85.04;97770.29;250563;1147;22965;-77
2021/01/21 05:17:23;;;;;;;164.90;51.87;;;;;;;0.96;84.46;97771.58;250467;1148;22942;-79
2021/01/21 05:22:26;;;;;;;167.93;52.33;;;;;;;0.88;84.41;97769.39;250308;1150;22967;-80
2021/01/21 05:27:40;;;;;;;142.47;44.87;;;;;;;0.80;84.26;97766.16;250418;1147;23025;-77
2021/01/21 05:32:59;;;;;;;135.95;43.55;;;;;;;0.84;85.08;97779.66;250235;1148;22973;-79
2021/01/21 05:38:15;;;;;;;139.27;43.07;;;;;;;0.89;84.60;97773.63;250368;1148;22970;-79
2021/01/21 05:43:47;;;;;;;140.00;42.17;;;;;;;0.91;85.51;97782.88;250339;1148;22981;-85
2021/01/21 05:49:10;;;;;;;129.03;40.20;;;;;;;0.97;85.30;97778.45;250283;1148;22954;-78
2021/01/21 05:54:14;;;;;;;133.53;41.43;;;;;;;1.00;85.75;97785.86;250506;1148;22966;-79
2021/01/21 05:59:26;;;;;;;164.75;51.00;;;;;;;1.02;85.76;97783.75;250992;1148;23110;-78
2021/01/21 06:04:40;;;;;;;157.25;52.55;;;;;;;1.02;84.39;97781.93;250482;1148;23115;-79
2021/01/21 06:09:43;;;;;;;148.00;51.30;;;;;;;1.00;84.90;97780.58;250495;1149;23099;-79
2021/01/21 06:14:46;;;;;;;155.17;49.10;;;;;;;1.00;84.85;97781.37;250363;1155;22950;-78
2021/01/21 06:19:48;;;;;;;144.00;46.93;;;;;;;1.01;85.20;97787.46;250724;1149;22953;-79
2021/01/21 06:24:58;;;;;;;148.40;47.97;;;;;;;1.03;85.08;97782.72;250882;1150;23006;-78
2021/01/21 06:30:03;;;;;;;168.67;53.43;;;;;;;1.07;84.78;97793.58;250679;1148;22949;-80
2021/01/21 06:35:06;;;;;;;161.15;53.05;;;;;;;1.11;85.32;97792.81;251006;1148;23020;-79
2021/01/21 06:40:12;;;;;;;152.20;47.25;;;;;;;1.19;85.66;97792.36;250370;1151;23100;-77
2021/01/21 06:45:14;;;;;;;148.20;49.60;;;;;;;1.32;85.93;97790.36;250083;1148;26328;-75
2021/01/21 06:50:18;;;;;;;178.25;57.65;;;;;;;1.40;85.22;97795.17;250606;1148;22984;-75
2021/01/21 06:55:20;;;;;;;201.40;61.17;;;;;;;1.42;85.27;97794.91;250177;1148;22945;-76
2021/01/21 07:00:40;;;;;;;179.77;57.23;;;;;;;1.47;85.03;97795.75;250419;1148;22935;-74
2021/01/21 07:05:56;;;;;;;173.05;51.77;;;;;;;1.57;85.52;97799.48;250558;1148;22964;-75
2021/01/21 07:10:59;;;;;;;164.30;52.83;;;;;;;1.65;85.08;97796.38;251909;1148;24034;-80
2021/01/21 07:16:03;;;;;;;170.80;52.77;;;;;;;1.75;85.14;97801.75;250560;1148;22942;-77
2021/01/21 07:21:08;;;;;;;215.85;70.75;;;;;;;1.83;85.08;97797.82;250328;1148;22970;-75
2021/01/21 07:26:19;;;;;;;300.40;91.40;;;;;;;1.95;85.12;97797.64;250821;1147;26107;-77
2021/01/21 07:31:50;;;;;;;185.23;64.43;;;;;;;2.04;85.04;97791.62;250130;1147;26446;-77
2021/01/21 07:37:30;;;;;;;195.80;62.60;;;;;;;2.15;84.73;97789.02;250353;1147;23690;-76
2021/01/21 07:42:38;;;;;;;81.53;27.60;;;;;;;2.19;84.87;97782.16;250668;1147;22893;-75
2021/01/21 07:47:43;;;;;;;70.17;25.93;;;;;;;2.37;85.06;97781.70;250419;1148;22907;-77
2021/01/21 07:52:53;;;;;;;87.57;29.53;;;;;;;2.57;84.83;97774.89;250295;1148;22941;-76
2021/01/21 07:58:16;;;;;;;74.72;29.42;;;;;;;2.73;84.81;97771.23;250558;1148;26023;-77
2021/01/21 08:03:28;;;;;;;80.47;31.87;;;;;;;2.91;84.70;97774.45;250241;1147;23058;-77
2021/01/21 08:08:30;;;;;;;76.37;27.40;;;;;;;3.17;84.76;97763.88;250507;1147;22900;-79
2021/01/21 08:13:34;;;;;;;124.23;38.73;;;;;;;3.41;84.19;97751.70;250574;1148;23123;-77
2021/01/21 08:18:36;;;;;;;115.17;40.13;;;;;;;3.57;83.54;97746.39;250490;1148;23044;-77
2021/01/21 08:23:40;;;;;;;147.15;47.50;;;;;;;3.93;83.59;97744.45;250243;1148;22945;-77
2021/01/21 08:28:44;;;;;;;136.70;46.20;;;;;;;4.03;82.72;97740.97;250385;1147;23032;-79
2021/01/21 08:33:52;;;;;;;139.33;47.07;;;;;;;4.17;83.25;97746.48;250539;1148;23022;-78
2021/01/21 08:38:55;;;;;;;115.40;44.33;;;;;;;4.33;82.66;97755.16;250496;1147;23438;-77
2021/01/21 08:44:00;;;;;;;142.95;45.70;;;;;;;4.37;81.98;97745.59;250281;1148;23064;-76
2021/01/21 08:49:10;;;;;;;114.63;37.73;;;;;;;4.49;82.77;97749.77;250476;1148;27695;-78
2021/01/21 08:54:18;;;;;;;116.47;37.10;;;;;;;4.67;82.73;97737.74;250687;1148;23073;-78
2021/01/21 08:59:39;;;;;;;105.57;35.47;;;;;;;4.86;82.79;97741.33;250663;1148;22970;-77
2021/01/21 09:04:43;;;;;;;101.73;34.83;;;;;;;5.08;82.57;97742.78;250876;1148;22909;-80
2021/01/21 09:09:45;;;;;;;81.75;28.65;;;;;;;5.35;83.10;97752.13;250746;1148;27372;-76
2021/01/21 09:15:06;;;;;;;93.83;30.93;;;;;;;5.63;82.95;97753.19;251346;1147;23318;-78
2021/01/21 09:20:24;;;;;;;88.67;29.37;;;;;;;5.93;82.54;97757.41;250712;1148;22967;-76
2021/01/21 09:25:39;;;;;;;97.20;30.60;;;;;;;6.25;81.99;97757.87;250415;1148;23039;-78
2021/01/21 09:30:42;;;;;;;90.07;31.40;;;;;;;6.47;81.83;97746.69;250403;1148;22963;-77
2021/01/21 09:35:44;;;;;;;109.03;34.37;;;;;;;6.72;81.85;97766.84;250440;1148;23359;-76
2021/01/21 09:40:46;;;;;;;92.37;30.23;;;;;;;6.96;82.45;97766.77;250460;1148;23091;-78
2021/01/21 09:45:48;;;;;;;125.50;36.53;;;;;;;7.16;81.47;97767.53;250486;1148;27690;-77
2021/01/21 09:50:54;;;;;;;56.57;17.37;;;;;;;7.21;79.87;97761.36;250581;1148;22908;-77
2021/01/21 09:55:56;;;;;;;58.93;20.80;;;;;;;7.12;78.03;97758.54;250821;1147;22932;-80
2021/01/21 10:00:59;;;;;;;50.83;17.47;;;;;;;7.22;79.76;97758.40;250898;1147;22945;-79
2021/01/21 10:06:18;;;;;;;56.10;17.97;;;;;;;7.34;78.90;97765.92;251078;1148;22967;-79
2021/01/21 10:11:20;;;;;;;41.13;14.30;;;;;;;7.48;78.36;97761.41;250720;1148;23417;-78
2021/01/21 10:16:23;;;;;;;36.50;14.03;;;;;;;7.48;76.34;97766.74;250952;1148;27816;-77
2021/01/21 10:21:26;;;;;;;28.43;13.50;;;;;;;7.44;76.84;97748.97;250994;1147;23327;-79
2021/01/21 10:26:28;;;;;;;37.40;13.00;;;;;;;7.44;74.85;97755.09;251102;1146;23338;-78
2021/01/21 10:31:30;;;;;;;29.43;13.03;;;;;;;7.38;75.91;97761.59;250942;1148;22942;-77
2021/01/21 10:36:37;;;;;;;39.30;15.15;;;;;;;7.33;74.91;97756.34;250909;1148;22946;-80
2021/01/21 10:41:39;;;;;;;34.87;14.77;;;;;;;7.25;74.28;97739.16;251211;1148;22936;-80
2021/01/21 10:46:41;;;;;;;27.90;11.17;;;;;;;7.26;74.48;97745.27;250926;1148;22948;-78
2021/01/21 10:51:45;;;;;;;27.73;11.00;;;;;;;7.24;73.88;97747.45;251048;1148;27396;-77
2021/01/21 10:56:54;;;;;;;14.27;6.30;;;;;;;7.28;75.42;97730.58;251646;1147;22901;-75
2021/01/21 11:01:57;;;;;;;12.63;5.60;;;;;;;7.27;73.34;97726.33;250653;1148;27196;-79
2021/01/21 11:06:59;;;;;;;11.70;5.27;;;;;;;7.17;70.08;97734.50;250725;1147;23904;-80
2021/01/21 11:12:08;;;;;;;9.67;4.33;;;;;;;7.17;73.30;97727.29;250624;1148;22977;-78
2021/01/21 11:17:10;;;;;;;9.15;4.95;;;;;;;7.25;73.31;97709.08;250672;1148;23453;-77
2021/01/21 11:22:14;;;;;;;8.23;4.50;;;;;;;7.33;73.07;97697.73;250574;1148;22970;-78
2021/01/21 11:27:16;;;;;;;13.17;5.00;;;;;;;7.35;73.38;97696.36;251394;1148;23413;-79
2021/01/21 11:32:18;;;;;;;15.17;7.07;;;;;;;7.47;74.25;97695.09;251945;1147;22907;-79
2021/01/21 11:37:21;;;;;;;10.20;3.73;;;;;;;7.59;73.71;97690.08;250576;1149;28896;-79
2021/01/21 11:42:23;;;;;;;14.90;4.87;;;;;;;7.65;73.51;97678.25;250805;1151;23089;-79
2021/01/21 11:47:26;;;;;;;13.43;5.47;;;;;;;7.76;72.83;97678.83;250976;1148;22958;-81
2021/01/21 11:52:30;;;;;;;10.43;4.73;;;;;;;7.84;73.09;97666.69;251379;1148;22939;-76
2021/01/21 11:57:35;;;;;;;9.10;4.97;;;;;;;7.87;72.02;97661.53;251651;1148;22977;-77
2021/01/21 12:02:39;;;;;;;7.60;3.70;;;;;;;7.87;70.89;97650.87;250608;1148;23024;-76
2021/01/21 12:07:42;;;;;;;11.90;4.80;;;;;;;7.98;71.26;97656.80;250698;1148;23109;-76
2021/01/21 12:12:46;;;;;;;13.63;4.63;;;;;;;8.02;71.34;97654.33;250972;1148;22948;-75
2021/01/21 12:17:48;;;;;;;8.00;3.75;;;;;;;8.07;71.65;97653.42;251252;1148;23018;-77
2021/01/21 12:22:50;;;;;;;9.20;4.30;;;;;;;8.18;71.55;97644.92;251662;1148;23013;-79
2021/01/21 12:27:53;;;;;;;14.30;4.70;;;;;;;8.21;71.35;97641.65;250691;1148;24871;-77
2021/01/21 12:32:55;;;;;;;9.50;3.75;;;;;;;8.21;71.03;97638.17;250510;1147;22974;-77
2021/01/21 12:37:57;;;;;;;12.70;5.13;;;;;;;8.24;72.24;97632.27;250839;1148;23433;-77
2021/01/21 12:42:59;;;;;;;17.75;4.85;;;;;;;8.23;70.07;97644.02;250490;1148;22926;-77
2021/01/21 12:48:01;;;;;;;10.53;4.53;;;;;;;8.13;69.93;97652.22;250631;1145;22970;-78
2021/01/21 12:53:05;;;;;;;10.87;4.63;;;;;;;8.04;69.55;97668.95;250682;1148;23032;-79
2021/01/21 12:58:07;;;;;;;7.70;3.93;;;;;;;7.99;70.20;97662.94;250847;1148;23341;-79
2021/01/21 13:03:09;;;;;;;11.23;4.17;;;;;;;8.07;70.43;97677.44;251539;1148;22967;-80
2021/01/21 13:08:11;;;;;;;8.10;3.60;;;;;;;8.21;70.09;97680.86;253562;1148;22954;-82
2021/01/21 13:13:14;;;;;;;6.10;3.17;;;;;;;8.31;68.21;97675.33;254424;1148;23690;-80
2021/01/21 13:18:16;;;;;;;8.77;3.93;;;;;;;8.40;69.29;97673.50;251508;1148;22946;-80
2021/01/21 13:23:19;;;;;;;5.87;3.10;;;;;;;8.44;69.01;97672.92;250923;1148;22955;-80
2021/01/21 13:28:21;;;;;;;6.93;3.47;;;;;;;8.35;69.25;97680.84;251252;1148;23106;-80
2021/01/21 13:33:24;;;;;;;10.03;3.47;;;;;;;8.17;68.80;97678.02;251081;1147;23431;-77
2021/01/21 13:38:29;;;;;;;12.53;3.63;;;;;;;7.97;68.22;97673.88;250922;1148;23100;-80
2021/01/21 13:43:40;;;;;;;9.50;4.50;;;;;;;7.83;67.92;97681.10;251006;1148;22967;-79
2021/01/21 13:48:42;;;;;;;10.47;3.93;;;;;;;7.72;68.13;97683.16;251601;1148;22991;-80
2021/01/21 13:53:44;;;;;;;7.13;3.60;;;;;;;7.62;68.26;97680.70;251864;1148;22976;-78
2021/01/21 13:58:47;;;;;;;9.17;2.97;;;;;;;7.58;68.73;97682.38;250781;1148;27685;-77
2021/01/21 14:03:50;;;;;;;9.13;3.43;;;;;;;7.52;69.28;97676.35;250645;1148;23126;-77
2021/01/21 14:08:52;;;;;;;8.65;3.60;;;;;;;7.45;69.00;97666.08;250913;1147;22942;-80
2021/01/21 14:13:54;;;;;;;9.03;3.20;;;;;;;7.35;69.03;97658.28;251065;1148;22945;-83
2021/01/21 14:18:56;;;;;;;4.90;3.03;;;;;;;7.28;69.12;97663.98;250367;1148;22902;-78
2021/01/21 14:24:13;;;;;;;13.00;4.77;;;;;;;7.17;69.30;97671.35;250210;1148;22938;-79
2021/01/21 14:29:15;;;;;;;10.97;3.47;;;;;;;6.97;68.76;97677.05;250405;1148;23046;-75
2021/01/21 14:34:20;;;;;;;7.70;2.83;;;;;;;6.75;69.21;97674.98;250597;1148;22952;-76
2021/01/21 14:39:23;;;;;;;5.97;2.67;;;;;;;6.53;68.87;97678.23;250059;1148;22971;-74
2021/01/21 14:44:26;;;;;;;6.15;2.40;;;;;;;6.35;69.39;97680.59;250184;1148;22969;-77
2021/01/21 14:49:29;;;;;;;6.87;3.20;;;;;;;6.12;70.06;97675.05;250025;1148;22948;-75
2021/01/21 14:54:31;;;;;;;8.80;2.60;;;;;;;5.92;70.08;97668.09;250349;1148;22989;-76
2021/01/21 14:59:33;;;;;;;6.05;2.65;;;;;;;5.78;71.06;97677.84;250178;1148;24481;-75
2021/01/21 15:04:36;;;;;;;4.70;2.27;;;;;;;5.64;71.09;97683.83;250662;1148;22967;-75
2021/01/21 15:09:39;;;;;;;5.10;2.43;;;;;;;5.54;71.72;97685.79;251274;1147;26383;-77
2021/01/21 15:14:41;;;;;;;6.27;3.13;;;;;;;5.45;71.98;97688.28;250488;1145;22941;-76
2021/01/21 15:19:45;;;;;;;9.45;3.85;;;;;;;5.37;72.04;97680.91;250078;1148;23394;-77
2021/01/21 15:24:47;;;;;;;10.35;4.05;;;;;;;5.25;72.23;97679.44;249870;1148;22945;-76
2021/01/21 15:29:50;;;;;;;15.87;5.67;;;;;;;5.11;72.61;97679.29;250055;1147;22931;-76
2021/01/21 15:34:52;;;;;;;14.47;6.70;;;;;;;4.97;72.84;97679.14;250080;1147;22938;-76
2021/01/21 15:39:54;;;;;;;11.20;4.63;;;;;;;4.82;72.87;97679.27;250145;1147;22965;-74
2021/01/21 15:44:56;;;;;;;17.40;6.83;;;;;;;4.72;73.12;97677.48;249751;1148;23202;-76
2021/01/21 15:49:59;;;;;;;27.77;9.23;;;;;;;4.59;73.58;97676.25;249655;1148;22962;-75
2021/01/21 15:55:02;;;;;;;29.77;10.70;;;;;;;4.51;74.15;97676.83;250039;1155;22963;-75
2021/01/21 16:00:05;;;;;;;21.60;9.67;;;;;;;4.48;74.58;97666.78;249648;1148;23035;-75
2021/01/21 16:05:27;;;;;;;28.43;11.57;;;;;;;4.47;75.48;97675.80;249662;1148;22961;-76
2021/01/21 16:10:30;;;;;;;29.50;13.50;;;;;;;4.42;75.84;97667.86;249667;1148;22937;-76
2021/01/21 16:15:32;;;;;;;25.27;9.97;;;;;;;4.30;74.87;97672.73;249710;1156;22970;-75
2021/01/21 16:20:34;;;;;;;27.50;11.40;;;;;;;4.06;74.80;97678.69;249802;1148;23048;-75
2021/01/21 16:25:36;;;;;;;24.05;8.90;;;;;;;3.88;75.18;97686.16;249737;1148;23330;-75
2021/01/21 16:30:39;;;;;;;29.97;13.33;;;;;;;3.73;75.36;97689.64;249830;1148;22963;-75
2021/01/21 16:35:42;;;;;;;45.30;17.87;;;;;;;3.68;76.03;97686.22;249944;1148;23411;-75
2021/01/21 16:40:44;;;;;;;55.27;21.20;;;;;;;3.65;76.06;97687.58;249719;1148;23161;-75
2021/01/21 16:45:46;;;;;;;46.93;19.63;;;;;;;3.66;76.87;97696.30;249642;1148;22953;-75
2021/01/21 16:50:48;;;;;;;47.60;19.57;;;;;;;3.69;76.79;97696.55;249529;1148;23016;-76
2021/01/21 16:55:51;;;;;;;46.53;18.10;;;;;;;3.57;76.22;97699.50;249624;1148;23040;-75
2021/01/21 17:00:53;;;;;;;46.83;17.03;;;;;;;3.46;76.58;97708.53;249777;1148;23077;-76
2021/01/21 17:05:55;;;;;;;52.60;20.30;;;;;;;3.47;77.68;97709.31;249564;1148;22949;-75
2021/01/21 17:10:57;;;;;;;52.73;21.17;;;;;;;3.56;77.90;97705.07;249736;1148;23112;-73
2021/01/21 17:15:59;;;;;;;51.45;20.00;;;;;;;3.60;77.86;97712.20;249715;1150;23155;-74
2021/01/21 17:21:02;;;;;;;49.53;17.97;;;;;;;3.65;78.20;97703.47;249619;1148;22977;-75
2021/01/21 17:26:05;;;;;;;46.40;18.43;;;;;;;3.67;78.01;97719.88;249816;1150;22952;-75
2021/01/21 17:31:07;;;;;;;49.00;18.15;;;;;;;3.68;77.92;97707.41;249635;1150;23455;-74
2021/01/21 17:36:09;;;;;;;51.37;17.80;;;;;;;3.66;78.15;97696.30;249762;1151;22995;-75
2021/01/21 17:41:12;;;;;;;49.80;17.63;;;;;;;3.64;78.83;97695.77;249893;1148;23490;-75
2021/01/21 17:46:15;;;;;;;61.80;22.53;;;;;;;3.64;78.58;97698.41;249840;1148;22942;-76
2021/01/21 17:51:18;;;;;;;64.47;23.87;;;;;;;3.59;78.38;97696.58;249973;1148;22967;-77
2021/01/21 17:56:20;;;;;;;62.47;20.27;;;;;;;3.50;78.34;97696.34;249741;1156;23056;-75
2021/01/21 18:01:22;;;;;;;51.17;19.87;;;;;;;3.46;78.29;97694.52;249722;1147;22962;-75
2021/01/21 18:06:36;;;;;;;57.37;19.50;;;;;;;3.34;78.62;97703.50;249522;1148;22942;-75
2021/01/21 18:11:38;;;;;;;45.67;18.77;;;;;;;3.24;78.17;97704.31;249671;1148;23095;-76
2021/01/21 18:16:40;;;;;;;47.27;17.83;;;;;;;3.21;78.96;97699.55;249546;1149;22933;-75
2021/01/21 18:21:43;;;;;;;43.30;17.93;;;;;;;3.19;79.17;97703.52;249658;1148;22977;-74
2021/01/21 18:26:45;;;;;;;50.67;18.93;;;;;;;3.18;79.44;97705.39;249674;1148;27697;-74
2021/01/21 18:31:47;;;;;;;59.57;22.83;;;;;;;3.16;79.77;97680.24;249578;1151;22977;-76
2021/01/21 18:36:50;;;;;;;55.75;19.35;;;;;;;3.07;78.92;97680.77;249475;1149;23104;-75
2021/01/21 18:41:52;;;;;;;42.57;17.60;;;;;;;3.04;79.18;97672.59;249615;1148;23106;-75
2021/01/21 18:46:55;;;;;;;51.60;19.45;;;;;;;2.99;79.62;97672.59;249569;1148;23076;-75
2021/01/21 18:51:57;;;;;;;58.00;22.97;;;;;;;2.98;79.49;97663.87;249679;1148;22983;-75
2021/01/21 18:57:03;;;;;;;53.55;20.55;;;;;;;2.98;79.40;97682.39;249531;1151;23042;-76
2021/01/21 19:02:06;;;;;;;36.77;18.27;;;;;;;2.98;79.68;97689.52;249476;1148;22941;-76
2021/01/21 19:07:08;;;;;;;51.03;18.93;;;;;;;2.94;79.46;97677.88;249484;1148;22966;-75
2021/01/21 19:12:11;;;;;;;49.97;19.13;;;;;;;2.93;79.81;97681.59;250231;1148;23051;-75
2021/01/21 19:17:15;;;;;;;34.63;14.80;;;;;;;2.84;79.52;97684.77;249475;1148;22967;-75
2021/01/21 19:22:17;;;;;;;40.10;16.87;;;;;;;2.66;78.83;97682.62;249426;1156;23362;-76
2021/01/21 19:27:20;;;;;;;48.50;19.70;;;;;;;2.47;79.26;97684.99;249459;1148;23030;-74
2021/01/21 19:32:22;;;;;;;43.70;17.05;;;;;;;2.37;79.74;97677.84;249472;1148;22991;-77
2021/01/21 19:37:28;;;;;;;37.17;15.90;;;;;;;2.31;79.90;97661.17;249619;1151;22976;-75
2021/01/21 19:42:31;;;;;;;41.83;15.53;;;;;;;2.29;79.83;97665.91;249674;1151;23008;-76
2021/01/21 19:47:34;;;;;;;37.55;15.65;;;;;;;2.33;80.64;97658.27;249765;1148;22974;-76
2021/01/21 19:52:37;;;;;;;43.27;15.50;;;;;;;2.43;80.85;97657.49;249619;1148;22973;-77
2021/01/21 19:57:39;;;;;;;48.37;18.97;;;;;;;2.58;81.25;97667.30;249835;1151;23109;-75
2021/01/21 20:02:43;;;;;;;53.45;17.25;;;;;;;2.66;81.77;97658.81;249438;1148;23038;-76
2021/01/21 20:07:49;;;;;;;47.50;17.60;;;;;;;2.68;80.80;97648.79;249564;1150;23014;-75
2021/01/21 20:12:51;;;;;;;36.80;15.03;;;;;;;2.73;81.02;97654.09;249782;1156;23003;-74
2021/01/21 20:17:53;;;;;;;52.20;18.00;;;;;;;2.82;81.43;97659.63;249728;1148;23402;-73
2021/01/21 20:22:55;;;;;;;57.57;19.30;;;;;;;2.89;81.17;97654.87;249175;1151;22945;-76
2021/01/21 20:27:57;;;;;;;67.17;23.13;;;;;;;2.85;81.25;97637.94;249582;1150;22915;-75
2021/01/21 20:32:59;;;;;;;65.17;24.60;;;;;;;2.89;81.82;97639.78;249421;1156;23052;-76
2021/01/21 20:38:05;;;;;;;70.07;27.83;;;;;;;2.80;81.05;97641.39;249463;1148;23104;-76
2021/01/21 20:43:07;;;;;;;63.73;25.60;;;;;;;2.76;80.98;97644.80;249443;1148;25942;-76
2021/01/21 20:48:11;;;;;;;55.03;24.20;;;;;;;2.71;81.20;97637.67;249737;1151;23502;-74
2021/01/21 20:53:13;;;;;;;57.90;25.10;;;;;;;2.72;81.43;97628.69;249924;1152;22964;-75
2021/01/21 20:58:15;;;;;;;60.50;24.40;;;;;;;2.73;81.69;97615.20;249366;1151;22991;-76
2021/01/21 21:03:18;;;;;;;52.43;20.90;;;;;;;2.74;81.36;97600.11;249588;1155;22964;-75
2021/01/21 21:08:20;;;;;;;50.73;19.33;;;;;;;2.79;81.63;97586.11;249769;1151;22919;-75
2021/01/21 21:13:22;;;;;;;47.10;21.23;;;;;;;2.80;81.01;97588.48;249803;1148;27256;-75
2021/01/21 21:18:24;;;;;;;46.77;17.97;;;;;;;2.88;81.03;97587.95;249394;1148;22977;-75
2021/01/21 21:23:26;;;;;;;56.87;18.53;;;;;;;2.92;81.42;97580.26;249480;1148;22946;-73
2021/01/21 21:28:29;;;;;;;53.77;16.73;;;;;;;2.97;81.91;97590.06;249471;1148;22949;-74
2021/01/21 21:33:31;;;;;;;38.50;15.50;;;;;;;3.04;81.97;97585.28;249345;1148;22910;-76
2021/01/21 21:38:34;;;;;;;34.10;13.90;;;;;;;3.11;81.73;97569.13;249362;1148;22955;-76
2021/01/21 21:43:36;;;;;;;39.05;13.05;;;;;;;3.18;81.38;97577.58;249505;1155;22948;-77
2021/01/21 21:48:39;;;;;;;27.73;12.47;;;;;;;3.22;81.60;97582.05;249415;1151;23380;-74
2021/01/21 21:53:41;;;;;;;26.95;9.65;;;;;;;3.27;81.36;97583.09;249491;1155;22943;-76
2021/01/21 21:58:45;;;;;;;28.33;9.73;;;;;;;3.33;81.65;97582.81;249394;1150;22953;-74
2021/01/21 22:03:47;;;;;;;23.97;9.80;;;;;;;3.36;81.43;97576.20;249979;1148;22949;-75
2021/01/21 22:08:50;;;;;;;25.53;7.97;;;;;;;3.41;81.88;97566.38;249532;1148;22906;-76
2021/01/21 22:13:53;;;;;;;21.77;7.90;;;;;;;3.51;82.05;97557.60;249460;1148;22939;-75
2021/01/21 22:18:55;;;;;;;15.53;6.30;;;;;;;3.62;82.04;97557.55;249466;1148;25960;-76
2021/01/21 22:23:57;;;;;;;11.73;5.80;;;;;;;3.73;82.25;97553.77;249349;1156;22951;-75
2021/01/21 22:28:59;;;;;;;19.70;6.27;;;;;;;3.80;82.09;97548.96;249288;1148;22915;-75
2021/01/21 22:34:02;;;;;;;13.53;4.87;;;;;;;3.86;82.17;97524.04;249351;1155;22966;-74
2021/01/21 22:39:05;;;;;;;13.23;5.47;;;;;;;3.93;82.05;97524.52;249589;1148;23025;-75
2021/01/21 22:44:07;;;;;;;12.93;3.77;;;;;;;3.99;81.87;97529.77;249654;1147;23106;-74
2021/01/21 22:49:09;;;;;;;14.13;4.77;;;;;;;4.04;82.07;97504.05;249447;1148;27819;-73
2021/01/21 22:54:11;;;;;;;10.13;4.23;;;;;;;4.11;81.97;97501.87;249428;1148;22939;-76
2021/01/21 22:59:13;;;;;;;7.20;3.65;;;;;;;4.18;81.95;97488.28;249414;1148;23465;-75
2021/01/21 23:04:15;;;;;;;13.43;4.37;;;;;;;4.31;82.09;97481.56;249662;1148;23011;-73
2021/01/21 23:09:18;;;;;;;9.57;3.43;;;;;;;4.44;82.32;97470.29;249561;1148;23101;-76
2021/01/21 23:14:20;;;;;;;14.73;3.80;;;;;;;4.56;82.15;97456.66;249400;1148;23087;-76
2021/01/21 23:19:22;;;;;;;6.90;4.23;;;;;;;4.68;82.25;97445.65;249363;1148;22976;-74
2021/01/21 23:24:24;;;;;;;9.40;3.80;;;;;;;4.82;82.14;97435.16;249474;1148;22966;-75